createdAt,value
2018-12-07T00:02:13.250Z,7.10
2018-12-07T00:04:40.764Z,7.00
2018-12-07T00:07:08.253Z,7.10
2018-12-07T00:09:35.755Z,7.40
2018-12-07T00:12:03.322Z,7.30
2018-12-07T00:14:30.796Z,7.40
2018-12-07T00:16:58.308Z,7.10
2018-12-07T00:19:25.964Z,7.20
2018-12-07T00:21:53.462Z,7.30
2018-12-07T00:24:20.954Z,7.40
2018-12-07T00:26:48.456Z,7.10
2018-12-07T00:29:16.004Z,7.40
2018-12-07T00:31:43.498Z,7.50
2018-12-07T00:34:10.986Z,7.30
2018-12-07T00:36:38.470Z,7.30
2018-12-07T00:39:07.108Z,7.30
2018-12-07T00:41:34.598Z,7.30
2018-12-07T00:44:02.157Z,7.20
2018-12-07T00:46:29.648Z,7.20
2018-12-07T00:48:57.133Z,7.10
2018-12-07T00:53:52.148Z,7.40
2018-12-07T00:56:19.631Z,7.20
2018-12-07T00:58:47.124Z,7.10
2018-12-07T01:01:14.629Z,7.10
2018-12-07T01:03:42.134Z,7.10
2018-12-07T01:06:09.678Z,7.30
2018-12-07T01:08:37.177Z,7.30
2018-12-07T01:11:04.667Z,7.60
2018-12-07T01:13:32.175Z,7.20
2018-12-07T01:15:59.730Z,7.20
2018-12-07T01:18:27.219Z,7.20
2018-12-07T01:20:54.715Z,7.20
2018-12-07T01:23:22.203Z,7.20
2018-12-07T01:25:49.712Z,7.20
2018-12-07T01:28:17.198Z,7.10
2018-12-07T01:30:44.855Z,7.00
2018-12-07T01:33:12.336Z,7.00
2018-12-07T01:35:39.832Z,6.90
2018-12-07T01:38:07.313Z,6.90
2018-12-07T01:40:34.795Z,6.90
2018-12-07T01:43:02.283Z,6.90
2018-12-07T01:45:29.777Z,6.60
2018-12-07T01:47:57.307Z,6.80
2018-12-07T01:50:24.878Z,6.80
2018-12-07T01:52:52.365Z,6.70
2018-12-07T01:55:19.861Z,6.70
2018-12-07T01:57:47.362Z,6.70
2018-12-07T02:00:14.920Z,6.80
2018-12-07T02:02:42.489Z,6.90
2018-12-07T02:05:09.980Z,6.90
2018-12-07T02:07:37.507Z,7.00
2018-12-07T02:10:06.622Z,7.20
2018-12-07T02:12:34.199Z,7.20
2018-12-07T02:15:01.714Z,7.10
2018-12-07T02:17:29.230Z,7.20
2018-12-07T02:19:56.721Z,7.20
2018-12-07T02:22:24.288Z,7.20
2018-12-07T02:24:51.781Z,7.20
2018-12-07T02:27:19.261Z,7.20
2018-12-07T02:29:46.749Z,7.20
2018-12-07T02:32:14.231Z,7.10
2018-12-07T02:34:41.725Z,7.20
2018-12-07T02:37:09.294Z,7.10
2018-12-07T02:39:36.779Z,7.10
2018-12-07T02:42:04.263Z,7.10
2018-12-07T02:44:31.752Z,7.10
2018-12-07T02:46:59.250Z,7.10
2018-12-07T02:49:26.763Z,7.10
2018-12-07T02:51:54.256Z,7.10
2018-12-07T02:54:21.762Z,7.10
2018-12-07T02:56:49.263Z,7.00
2018-12-07T02:59:16.827Z,7.00
2018-12-07T03:01:44.345Z,6.90
2018-12-07T03:04:11.848Z,7.00
2018-12-07T03:06:39.355Z,6.90
2018-12-07T03:09:06.983Z,6.80
2018-12-07T03:11:34.545Z,6.90
2018-12-07T03:14:02.041Z,6.90
2018-12-07T03:16:29.554Z,6.90
2018-12-07T03:18:57.049Z,6.80
2018-12-07T03:21:24.549Z,6.80
2018-12-07T03:23:52.040Z,6.90
2018-12-07T03:26:19.588Z,6.90
2018-12-07T03:28:47.087Z,6.90
2018-12-07T03:31:14.577Z,6.90
2018-12-07T03:33:42.117Z,7.00
2018-12-07T03:36:09.710Z,6.90
2018-12-07T03:38:37.201Z,6.90
2018-12-07T03:41:04.695Z,6.80
2018-12-07T03:43:32.208Z,6.80
2018-12-07T03:45:59.810Z,6.70
2018-12-07T03:48:27.309Z,6.80
2018-12-07T03:53:22.279Z,6.80
2018-12-07T03:55:49.772Z,6.80
2018-12-07T03:58:17.386Z,6.80
2018-12-07T04:00:44.885Z,6.80
2018-12-07T04:03:12.374Z,6.70
2018-12-07T04:05:39.873Z,6.80
2018-12-07T04:08:07.368Z,6.80
2018-12-07T04:10:34.878Z,6.80
2018-12-07T04:13:02.374Z,6.90
2018-12-07T04:15:29.872Z,6.90
2018-12-07T04:17:57.380Z,6.90
2018-12-07T04:20:24.875Z,6.80
2018-12-07T04:22:52.408Z,6.80
2018-12-07T04:25:19.918Z,6.90
2018-12-07T04:27:47.415Z,6.90
2018-12-07T04:30:25.245Z,7.00
2018-12-07T04:32:52.832Z,7.00
2018-12-07T04:35:20.330Z,7.00
2018-12-07T04:37:47.812Z,7.10
2018-12-07T04:40:15.367Z,7.10
2018-12-07T04:42:42.991Z,7.10
2018-12-07T04:45:10.486Z,7.20
2018-12-07T04:47:37.979Z,7.20
2018-12-07T04:50:05.604Z,7.10
2018-12-07T04:52:33.185Z,7.20
2018-12-07T04:55:00.678Z,7.20
2018-12-07T04:57:28.179Z,7.20
2018-12-07T04:59:55.669Z,7.20
2018-12-07T05:02:23.163Z,7.10
2018-12-07T05:04:50.659Z,7.10
2018-12-07T05:07:18.279Z,7.10
2018-12-07T05:09:45.796Z,7.10
2018-12-07T05:12:13.311Z,7.00
2018-12-07T05:14:40.877Z,7.00
2018-12-07T05:17:08.353Z,7.00
2018-12-07T05:19:35.848Z,7.00
2018-12-07T05:22:03.405Z,7.10
2018-12-07T05:24:30.912Z,7.10
2018-12-07T05:26:58.404Z,7.10
2018-12-07T05:29:25.895Z,7.10
2018-12-07T05:31:53.394Z,7.20
2018-12-07T05:34:20.881Z,7.30
2018-12-07T05:36:48.381Z,7.20
2018-12-07T05:39:15.882Z,7.20
2018-12-07T05:41:43.381Z,7.00
2018-12-07T05:44:10.880Z,7.10
2018-12-07T05:46:38.369Z,7.00
2018-12-07T05:49:05.874Z,7.00
2018-12-07T05:51:33.447Z,6.90
2018-12-07T05:54:01.402Z,6.90
2018-12-07T05:56:28.893Z,6.90
2018-12-07T05:58:56.414Z,6.90
2018-12-07T06:01:23.927Z,6.90
2018-12-07T06:03:51.419Z,6.90
2018-12-07T06:06:19.002Z,6.90
2018-12-07T06:08:46.519Z,7.00
2018-12-07T06:11:14.021Z,7.10
2018-12-07T06:13:41.511Z,7.10
2018-12-07T06:16:09.375Z,7.10
2018-12-07T06:18:36.939Z,7.10
2018-12-07T06:21:04.443Z,7.10
2018-12-07T06:23:31.933Z,7.10
2018-12-07T06:25:59.455Z,7.00
2018-12-07T06:28:26.990Z,7.00
2018-12-07T06:30:54.501Z,7.00
2018-12-07T06:33:22.016Z,7.10
2018-12-07T06:35:50.481Z,7.00
2018-12-07T06:38:17.988Z,7.10
2018-12-07T06:40:45.511Z,7.20
2018-12-07T06:43:12.991Z,7.10
2018-12-07T06:45:40.489Z,7.00
2018-12-07T06:48:08.014Z,7.00
2018-12-07T06:50:36.916Z,7.00
2018-12-07T06:53:04.625Z,7.20
2018-12-07T06:55:32.141Z,7.20
2018-12-07T06:57:59.633Z,7.30
2018-12-07T07:00:27.134Z,7.40
2018-12-07T07:02:54.635Z,7.50
2018-12-07T07:05:22.137Z,7.60
2018-12-07T07:07:49.628Z,7.70
2018-12-07T07:10:17.197Z,7.70
2018-12-07T07:12:44.849Z,7.80
2018-12-07T07:15:12.342Z,7.80
2018-12-07T07:17:39.828Z,7.90
2018-12-07T07:20:07.462Z,8.10
2018-12-07T07:22:34.960Z,7.90
2018-12-07T07:25:02.519Z,8.00
2018-12-07T07:27:30.055Z,8.00
2018-12-07T07:29:57.603Z,8.10
2018-12-07T07:32:25.224Z,8.10
2018-12-07T07:34:52.798Z,8.10
2018-12-07T07:37:20.341Z,8.20
2018-12-07T07:39:47.875Z,8.30
2018-12-07T07:42:15.418Z,8.30
2018-12-07T07:44:42.930Z,8.50
2018-12-07T07:47:10.449Z,8.50
2018-12-07T07:49:38.009Z,8.70
2018-12-07T07:52:05.493Z,8.60
2018-12-07T07:54:32.987Z,8.80
2018-12-07T07:57:00.492Z,8.80
2018-12-07T07:59:27.995Z,8.90
2018-12-07T08:01:55.503Z,9.00
2018-12-07T08:04:22.997Z,9.00
2018-12-07T08:06:50.534Z,9.10
2018-12-07T08:09:18.097Z,9.50
2018-12-07T08:11:45.587Z,9.70
2018-12-07T08:14:13.085Z,9.90
2018-12-07T08:16:40.687Z,10.50
2018-12-07T08:19:08.284Z,10.70
2018-12-07T08:21:35.846Z,10.70
2018-12-07T08:24:03.489Z,11.20
2018-12-07T08:26:31.087Z,11.10
2018-12-07T08:28:58.590Z,11.20
2018-12-07T08:31:26.078Z,11.20
2018-12-07T08:33:53.579Z,11.20
2018-12-07T08:36:21.065Z,10.90
2018-12-07T08:38:48.561Z,10.90
2018-12-07T08:41:16.077Z,10.70
2018-12-07T08:43:43.643Z,10.80
2018-12-07T08:46:11.149Z,10.70
2018-12-07T08:48:38.821Z,10.70
2018-12-07T08:51:06.335Z,10.50
2018-12-07T08:53:33.829Z,10.50
2018-12-07T08:56:01.317Z,10.30
2018-12-07T08:58:28.815Z,10.40
2018-12-07T09:00:56.305Z,10.60
2018-12-07T09:05:51.303Z,10.60
2018-12-07T09:08:18.881Z,10.80
2018-12-07T09:10:46.500Z,10.60
2018-12-07T09:13:13.987Z,10.60
2018-12-07T09:15:41.552Z,10.60
2018-12-07T09:18:09.056Z,10.70
2018-12-07T09:20:36.555Z,10.90
2018-12-07T09:23:04.122Z,10.90
2018-12-07T09:25:31.621Z,10.90
2018-12-07T09:27:59.134Z,11.00
2018-12-07T09:30:26.628Z,11.00
2018-12-07T09:32:54.115Z,11.10
2018-12-07T09:35:21.609Z,11.00
2018-12-07T09:37:49.243Z,11.20
2018-12-07T09:40:16.743Z,11.30
2018-12-07T09:42:44.237Z,11.40
2018-12-07T09:45:11.734Z,11.40
2018-12-07T09:47:39.235Z,11.60
2018-12-07T09:50:06.957Z,11.60
2018-12-07T09:55:01.983Z,11.90
2018-12-07T09:57:29.467Z,12.00
2018-12-07T09:59:56.978Z,12.10
2018-12-07T10:02:24.483Z,12.30
2018-12-07T10:04:51.997Z,12.30
2018-12-07T10:07:19.502Z,12.40
2018-12-07T10:09:46.987Z,12.10
2018-12-07T10:12:14.487Z,12.10
2018-12-07T10:14:41.976Z,12.00
2018-12-07T10:17:09.467Z,12.00
2018-12-07T10:19:36.971Z,12.20
2018-12-07T10:22:04.578Z,12.20
2018-12-07T10:24:32.082Z,12.30
2018-12-07T10:27:03.518Z,12.50
2018-12-07T10:29:31.027Z,12.60
2018-12-07T10:31:58.535Z,12.70
2018-12-07T10:34:26.064Z,12.80
2018-12-07T10:36:53.607Z,12.80
2018-12-07T10:39:21.105Z,13.00
2018-12-07T10:41:48.608Z,13.10
2018-12-07T10:44:16.098Z,13.10
2018-12-07T10:46:43.596Z,13.30
2018-12-07T10:49:11.089Z,13.30
2018-12-07T10:51:38.607Z,13.60
2018-12-07T10:54:06.114Z,13.50
2018-12-07T10:56:33.614Z,13.40
2018-12-07T10:59:01.111Z,13.70
2018-12-07T11:01:34.513Z,13.90
2018-12-07T11:04:07.749Z,13.70
2018-12-07T11:06:40.867Z,13.70
2018-12-07T11:09:14.098Z,13.80
2018-12-07T11:11:43.692Z,13.90
2018-12-07T11:14:11.291Z,13.90
2018-12-07T11:16:44.401Z,13.90
2018-12-07T11:19:17.706Z,13.90
2018-12-07T11:21:50.889Z,13.90
2018-12-07T11:24:24.019Z,13.90
2018-12-07T11:26:57.321Z,13.90
2018-12-07T11:32:39.023Z,13.60
2018-12-07T11:35:07.700Z,13.70
2018-12-07T11:37:35.203Z,13.40
2018-12-07T11:40:02.771Z,13.60
2018-12-07T11:42:30.270Z,13.50
2018-12-07T11:44:57.785Z,13.50
2018-12-07T11:47:25.289Z,13.30
2018-12-07T11:49:52.784Z,13.50
2018-12-07T11:52:20.281Z,13.40
2018-12-07T11:54:47.771Z,13.30
2018-12-07T11:57:15.327Z,13.20
2018-12-07T11:59:42.815Z,13.20
2018-12-07T12:02:10.328Z,13.20
2018-12-07T12:04:37.871Z,13.20
2018-12-07T12:07:05.363Z,13.20
2018-12-07T12:09:33.196Z,13.40
2018-12-07T12:12:00.778Z,13.30
2018-12-07T12:19:23.437Z,13.20
2018-12-07T12:21:50.982Z,13.30
2018-12-07T12:24:18.506Z,13.30
2018-12-07T12:26:46.012Z,13.30
2018-12-07T12:29:13.512Z,13.40
2018-12-07T12:31:41.008Z,13.30
2018-12-07T12:34:08.502Z,13.30
2018-12-07T13:08:13.988Z,15.50
2018-12-07T13:10:41.493Z,16.10
2018-12-07T13:13:08.983Z,16.40
2018-12-07T13:15:36.498Z,16.20
2018-12-07T13:18:04.053Z,15.80
2018-12-07T13:20:31.540Z,15.60
2018-12-07T13:22:59.037Z,15.50
2018-12-07T13:25:26.523Z,15.10
2018-12-07T13:27:54.020Z,14.90
2018-12-07T13:30:21.560Z,14.70
2018-12-07T13:32:49.056Z,14.40
2018-12-07T13:35:16.556Z,14.30
2018-12-07T13:37:44.073Z,14.20
2018-12-07T13:40:11.730Z,14.10
2018-12-07T13:42:39.477Z,14.10
2018-12-07T13:45:07.574Z,14.00
2018-12-07T13:47:35.213Z,13.90
2018-12-07T13:50:09.737Z,13.80
2018-12-07T13:52:37.385Z,13.80
2018-12-07T13:55:05.407Z,13.60
2018-12-07T13:57:33.130Z,13.50
2018-12-07T14:00:00.746Z,13.30
2018-12-07T14:02:28.550Z,13.20
2018-12-07T14:04:56.346Z,13.20
2018-12-07T14:07:24.036Z,13.10
2018-12-07T14:09:51.632Z,13.00
2018-12-07T14:12:19.263Z,12.90
2018-12-07T14:14:47.036Z,12.90
2018-12-07T14:17:14.581Z,12.80
2018-12-07T14:19:42.242Z,12.70
2018-12-07T14:22:09.998Z,12.70
2018-12-07T14:24:37.571Z,12.70
2018-12-07T14:27:05.199Z,12.70
2018-12-07T14:29:32.885Z,12.60
2018-12-07T14:32:00.667Z,12.60
2018-12-07T14:34:28.308Z,12.60
2018-12-07T14:36:55.974Z,12.60
2018-12-07T14:39:23.659Z,12.40
2018-12-07T14:41:51.409Z,12.40
2018-12-07T14:44:19.144Z,12.30
2018-12-07T14:46:46.970Z,12.30
2018-12-07T14:49:14.661Z,12.20
2018-12-07T14:51:42.296Z,12.20
2018-12-07T14:54:09.950Z,12.20
2018-12-07T14:56:38.554Z,12.20
2018-12-07T14:59:06.205Z,12.20
2018-12-07T15:01:33.976Z,12.10
2018-12-07T15:04:01.847Z,12.20
2018-12-07T15:06:29.652Z,12.10
2018-12-07T15:08:57.874Z,11.70
2018-12-07T15:11:25.511Z,11.80
2018-12-07T15:13:53.189Z,11.50
2018-12-07T15:16:20.829Z,11.30
2018-12-07T15:21:15.926Z,11.20
2018-12-07T15:23:43.623Z,11.20
2018-12-07T15:26:11.528Z,10.80
2018-12-07T15:28:39.155Z,10.80
2018-12-07T15:31:06.731Z,10.40
2018-12-07T15:33:34.512Z,10.70
2018-12-07T15:36:02.280Z,10.50
2018-12-07T15:38:29.989Z,10.60
2018-12-07T15:40:57.625Z,10.50
2018-12-07T15:43:25.271Z,10.40
2018-12-07T15:48:21.597Z,10.40
2018-12-07T15:50:49.356Z,10.50
2018-12-07T15:53:17.074Z,10.20
2018-12-07T15:55:45.627Z,10.60
2018-12-07T15:58:13.419Z,10.40
2018-12-07T16:03:08.904Z,10.00
2018-12-07T16:05:36.655Z,10.00
2018-12-07T16:08:04.465Z,9.90
2018-12-07T16:10:32.114Z,9.90
2018-12-07T16:13:00.023Z,9.90
2018-12-07T16:15:27.934Z,10.20
2018-12-07T16:17:55.560Z,9.80
2018-12-07T16:20:23.126Z,9.80
2018-12-07T16:22:50.883Z,9.80
2018-12-07T16:25:19.170Z,10.00
2018-12-07T16:27:46.843Z,9.90
2018-12-07T16:30:14.579Z,9.80
2018-12-07T16:32:42.166Z,10.10
2018-12-07T16:35:10.603Z,10.20
2018-12-07T16:37:38.270Z,9.50
2018-12-07T16:40:07.105Z,10.10
2018-12-07T16:42:36.315Z,10.00
2018-12-07T16:45:04.591Z,10.00
2018-12-07T16:47:32.188Z,10.10
2018-12-07T16:49:59.895Z,9.30
2018-12-07T16:52:27.610Z,10.00
2018-12-07T16:54:56.138Z,9.70
2018-12-07T16:57:23.724Z,10.00
2018-12-07T16:59:51.388Z,10.30
2018-12-07T17:02:19.017Z,9.90
2018-12-07T17:04:46.812Z,10.30
2018-12-07T17:07:14.483Z,10.00
2018-12-07T17:09:42.303Z,10.10
2018-12-07T17:12:09.887Z,10.30
2018-12-07T17:14:37.603Z,10.10
2018-12-07T17:17:05.253Z,10.30
2018-12-07T17:19:33.662Z,9.80
2018-12-07T17:22:01.390Z,10.10
2018-12-07T17:24:29.084Z,10.30
2018-12-07T17:26:56.945Z,10.00
2018-12-07T17:29:24.647Z,9.90
2018-12-07T17:31:52.433Z,10.10
2018-12-07T17:34:21.023Z,9.50
2018-12-07T17:36:48.724Z,10.00
2018-12-07T17:39:16.385Z,10.60
2018-12-07T17:41:44.694Z,9.90
2018-12-07T17:44:12.691Z,10.00
2018-12-07T17:46:40.518Z,10.00
2018-12-07T17:49:08.309Z,9.60
2018-12-07T17:51:36.174Z,9.50
2018-12-07T17:54:03.945Z,9.30
2018-12-07T17:56:31.771Z,9.00
2018-12-07T17:59:00.911Z,9.30
2018-12-07T18:01:29.256Z,8.20
2018-12-07T18:03:56.835Z,8.90
2018-12-07T18:06:24.479Z,8.30
2018-12-07T18:08:53.250Z,8.70
2018-12-07T18:11:21.353Z,8.40
2018-12-07T18:13:49.951Z,8.00
2018-12-07T18:16:17.608Z,8.20
2018-12-07T18:18:45.433Z,8.10
2018-12-07T18:21:14.199Z,8.00
2018-12-07T18:23:41.833Z,7.70
2018-12-07T18:26:10.916Z,7.90
2018-12-07T18:28:39.486Z,7.80
2018-12-07T18:31:07.784Z,7.80
2018-12-07T18:33:35.379Z,7.60
2018-12-07T18:36:03.535Z,7.50
2018-12-07T18:38:31.406Z,7.30
2018-12-07T18:41:00.162Z,7.10
2018-12-07T18:43:30.552Z,7.00
2018-12-07T18:45:59.288Z,6.90
2018-12-07T18:48:28.063Z,7.10
2018-12-07T18:50:55.939Z,7.10
2018-12-07T18:53:24.581Z,7.20
2018-12-07T18:55:52.262Z,7.10
2018-12-07T18:58:19.910Z,6.70
2018-12-07T19:00:47.527Z,7.20
2018-12-07T19:03:15.391Z,7.70
2018-12-07T19:05:44.180Z,7.40
2018-12-07T19:08:13.466Z,7.20
2018-12-07T19:10:41.174Z,7.30
2018-12-07T19:13:09.136Z,7.20
2018-12-07T19:15:36.858Z,7.50
2018-12-07T19:18:05.534Z,7.30
2018-12-07T19:20:33.498Z,7.40
2018-12-07T19:23:02.896Z,7.40
2018-12-07T19:25:30.750Z,7.50
2018-12-07T19:27:59.814Z,7.70
2018-12-07T19:32:56.000Z,8.00
2018-12-07T19:35:26.035Z,8.10
2018-12-07T19:37:56.559Z,8.20
2018-12-07T19:40:24.131Z,8.50
2018-12-07T19:42:53.390Z,8.50
2018-12-07T19:45:21.938Z,8.60
2018-12-07T19:47:53.176Z,8.50
2018-12-07T19:50:21.034Z,8.80
2018-12-07T19:52:48.783Z,8.50
2018-12-07T19:55:17.298Z,8.60
2018-12-07T19:57:44.985Z,8.50
2018-12-07T20:00:14.083Z,8.30
2018-12-07T20:02:42.830Z,8.60
2018-12-07T20:07:42.291Z,10.30
2018-12-07T20:10:12.031Z,9.30
2018-12-07T20:12:41.801Z,8.90
2018-12-07T20:15:11.955Z,9.10
2018-12-07T20:17:39.655Z,9.40
2018-12-07T20:20:07.527Z,9.30
2018-12-07T20:22:35.524Z,9.40
2018-12-07T20:25:03.246Z,9.60
2018-12-07T20:27:31.880Z,9.80
2018-12-07T20:29:59.614Z,9.60
2018-12-07T20:32:27.902Z,9.40
2018-12-07T20:34:55.921Z,9.50
2018-12-07T20:37:25.564Z,9.70
2018-12-07T20:39:53.665Z,9.50
2018-12-07T20:42:22.426Z,9.70
2018-12-07T20:44:51.132Z,9.80
2018-12-07T20:47:24.527Z,9.70
2018-12-07T20:49:50.320Z,9.80
2018-12-07T20:52:18.478Z,9.70
2018-12-07T20:54:46.571Z,9.90
2018-12-07T20:57:15.426Z,9.90
2018-12-07T20:59:43.802Z,9.70
2018-12-07T21:02:12.647Z,9.60
2018-12-07T21:04:40.476Z,9.70
2018-12-07T21:07:40.451Z,9.60
2018-12-07T21:10:26.146Z,9.70
2018-12-07T21:19:48.720Z,9.00
2018-12-07T21:24:45.206Z,9.60
2018-12-07T21:27:13.372Z,9.70
2018-12-07T21:29:41.190Z,9.70
2018-12-07T21:32:13.322Z,9.70
2018-12-07T21:34:54.403Z,9.80
2018-12-07T21:37:22.046Z,9.90
2018-12-07T21:39:49.996Z,9.60
2018-12-07T21:42:18.406Z,9.90
2018-12-07T21:44:47.905Z,9.90
2018-12-07T21:47:15.787Z,9.80
2018-12-07T21:49:43.743Z,9.90
2018-12-07T21:52:15.812Z,9.90
2018-12-07T21:54:43.398Z,9.90
2018-12-07T21:57:11.144Z,9.80
2018-12-07T22:02:08.253Z,9.70
2018-12-07T22:04:36.160Z,10.10
2018-12-07T22:07:05.027Z,10.00
2018-12-07T22:09:33.773Z,10.10
2018-12-07T22:12:01.735Z,10.10
2018-12-07T22:14:29.496Z,10.00
2018-12-07T22:16:58.039Z,9.90
2018-12-07T22:19:25.636Z,10.00
2018-12-07T22:21:53.274Z,9.80
2018-12-07T22:24:21.087Z,9.90
2018-12-07T22:26:49.017Z,9.80
2018-12-07T22:29:16.815Z,9.70
2018-12-07T22:31:44.609Z,10.00
2018-12-07T22:36:40.149Z,9.60
2018-12-07T22:41:35.608Z,9.40
2018-12-07T22:44:03.287Z,9.50
2018-12-07T22:46:30.950Z,9.30
2018-12-07T22:48:58.531Z,9.70
2018-12-07T22:51:26.701Z,9.80
2018-12-07T22:53:54.283Z,9.60
2018-12-07T22:56:21.783Z,9.60
2018-12-07T22:58:49.282Z,9.30
2018-12-07T23:01:16.838Z,9.60
2018-12-07T23:03:44.733Z,9.40
2018-12-07T23:06:12.231Z,9.70
2018-12-07T23:08:39.981Z,9.70
2018-12-07T23:11:07.493Z,9.70
2018-12-07T23:13:35.004Z,9.00
2018-12-07T23:16:02.565Z,9.70
2018-12-07T23:18:30.067Z,10.00
2018-12-07T23:20:57.563Z,9.50
2018-12-07T23:23:25.081Z,8.60
2018-12-07T23:25:52.583Z,9.70
2018-12-07T23:28:20.095Z,9.60
2018-12-07T23:33:15.110Z,9.60
2018-12-07T23:35:42.722Z,9.50
2018-12-07T23:38:10.220Z,9.40
2018-12-07T23:40:37.706Z,9.60
2018-12-07T23:43:07.365Z,9.50
2018-12-07T23:45:34.954Z,9.50
2018-12-07T23:48:02.501Z,9.50
2018-12-07T23:50:30.089Z,9.60
2018-12-07T23:55:25.067Z,9.20
2018-12-07T23:57:52.628Z,8.60
